sensor_id;sensor_type;location;lat;lon;timestamp;P1;P2;P0
40947;PMS5003;49382;-25.924;28.194;2022-08-21T00:01:18;5;5;
40947;PMS5003;49382;-25.924;28.194;2022-08-21T00:03:42;4;4;
40947;PMS5003;49382;-25.924;28.194;2022-08-21T00:06:07;6;4;
40947;PMS5003;49382;-25.924;28.194;2022-08-21T00:08:32;5;4;
40947;PMS5003;49382;-25.924;28.194;2022-08-21T00:10:58;3;2;
40947;PMS5003;49382;-25.924;28.194;2022-08-21T00:13:23;4;4;
40947;PMS5003;49382;-25.924;28.194;2022-08-21T00:15:49;3;3;
40947;PMS5003;49382;-25.924;28.194;2022-08-21T00:18:14;5;4;
40947;PMS5003;49382;-25.924;28.194;2022-08-21T00:20:39;5;4;
40947;PMS5003;49382;-25.924;28.194;2022-08-21T00:23:04;5;5;
40947;PMS5003;49382;-25.924;28.194;2022-08-21T00:25:29;6;6;
40947;PMS5003;49382;-25.924;28.194;2022-08-21T00:27:54;5;5;
40947;PMS5003;49382;-25.924;28.194;2022-08-21T00:30:20;5;4;
40947;PMS5003;49382;-25.924;28.194;2022-08-21T00:32:44;4;4;
40947;PMS5003;49382;-25.924;28.194;2022-08-21T00:35:12;6;5;
40947;PMS5003;49382;-25.924;28.194;2022-08-21T00:37:35;5;5;
40947;PMS5003;49382;-25.924;28.194;2022-08-21T00:40:00;4;4;
40947;PMS5003;49382;-25.924;28.194;2022-08-21T00:42:25;6;5;
40947;PMS5003;49382;-25.924;28.194;2022-08-21T00:44:50;5;5;
40947;PMS5003;49382;-25.924;28.194;2022-08-21T00:47:16;5;4;
40947;PMS5003;49382;-25.924;28.194;2022-08-21T00:49:41;5;5;
40947;PMS5003;49382;-25.924;28.194;2022-08-21T00:52:08;6;6;
40947;PMS5003;49382;-25.924;28.194;2022-08-21T00:54:33;6;5;
40947;PMS5003;49382;-25.924;28.194;2022-08-21T00:56:59;5;5;
40947;PMS5003;49382;-25.924;28.194;2022-08-21T00:59:22;4;4;
40947;PMS5003;49382;-25.924;28.194;2022-08-21T01:01:48;4;4;
40947;PMS5003;49382;-25.924;28.194;2022-08-21T01:04:13;6;4;
40947;PMS5003;49382;-25.924;28.194;2022-08-21T01:06:38;4;4;
40947;PMS5003;49382;-25.924;28.194;2022-08-21T01:09:03;4;4;
40947;PMS5003;49382;-25.924;28.194;2022-08-21T01:11:28;4;4;
40947;PMS5003;49382;-25.924;28.194;2022-08-21T01:13:54;5;5;
40947;PMS5003;49382;-25.924;28.194;2022-08-21T01:16:19;6;6;
40947;PMS5003;49382;-25.924;28.194;2022-08-21T01:18:44;7;6;
40947;PMS5003;49382;-25.924;28.194;2022-08-21T01:21:10;5;5;
40947;PMS5003;49382;-25.924;28.194;2022-08-21T01:23:34;6;5;
40947;PMS5003;49382;-25.924;28.194;2022-08-21T01:26:00;7;6;
40947;PMS5003;49382;-25.924;28.194;2022-08-21T01:28:25;5;4;
40947;PMS5003;49382;-25.924;28.194;2022-08-21T01:30:50;7;7;
40947;PMS5003;49382;-25.924;28.194;2022-08-21T01:33:16;6;6;
40947;PMS5003;49382;-25.924;28.194;2022-08-21T01:35:41;7;6;
40947;PMS5003;49382;-25.924;28.194;2022-08-21T01:38:06;15;15;
40947;PMS5003;49382;-25.924;28.194;2022-08-21T01:40:32;12;12;
40947;PMS5003;49382;-25.924;28.194;2022-08-21T01:42:57;12;11;
40947;PMS5003;49382;-25.924;28.194;2022-08-21T01:45:22;7;7;
40947;PMS5003;49382;-25.924;28.194;2022-08-21T01:47:47;4;4;
40947;PMS5003;49382;-25.924;28.194;2022-08-21T01:50:13;7;6;
40947;PMS5003;49382;-25.924;28.194;2022-08-21T01:52:38;7;6;
40947;PMS5003;49382;-25.924;28.194;2022-08-21T01:55:04;4;3;
40947;PMS5003;49382;-25.924;28.194;2022-08-21T01:57:28;6;4;
40947;PMS5003;49382;-25.924;28.194;2022-08-21T01:59:53;5;5;
40947;PMS5003;49382;-25.924;28.194;2022-08-21T02:02:18;5;5;
40947;PMS5003;49382;-25.924;28.194;2022-08-21T02:04:44;6;5;
40947;PMS5003;49382;-25.924;28.194;2022-08-21T02:07:09;4;4;
40947;PMS5003;49382;-25.924;28.194;2022-08-21T02:09:35;5;5;
40947;PMS5003;49382;-25.924;28.194;2022-08-21T02:12:00;3;3;
40947;PMS5003;49382;-25.924;28.194;2022-08-21T02:14:25;4;4;
40947;PMS5003;49382;-25.924;28.194;2022-08-21T02:16:50;3;3;
40947;PMS5003;49382;-25.924;28.194;2022-08-21T02:19:16;3;3;
40947;PMS5003;49382;-25.924;28.194;2022-08-21T02:21:41;3;3;
40947;PMS5003;49382;-25.924;28.194;2022-08-21T02:24:07;5;4;
40947;PMS5003;49382;-25.924;28.194;2022-08-21T02:26:31;4;4;
40947;PMS5003;49382;-25.924;28.194;2022-08-21T02:28:56;6;6;
40947;PMS5003;49382;-25.924;28.194;2022-08-21T02:31:22;4;4;
40947;PMS5003;49382;-25.924;28.194;2022-08-21T02:33:47;6;6;
40947;PMS5003;49382;-25.924;28.194;2022-08-21T02:36:13;7;7;
40947;PMS5003;49382;-25.924;28.194;2022-08-21T02:38:38;7;6;
40947;PMS5003;49382;-25.924;28.194;2022-08-21T02:41:03;7;7;
40947;PMS5003;49382;-25.924;28.194;2022-08-21T02:43:28;13;12;
40947;PMS5003;49382;-25.924;28.194;2022-08-21T02:45:54;7;7;
40947;PMS5003;49382;-25.924;28.194;2022-08-21T02:48:20;10;10;
40947;PMS5003;49382;-25.924;28.194;2022-08-21T02:50:44;13;11;
40947;PMS5003;49382;-25.924;28.194;2022-08-21T02:53:10;14;13;
40947;PMS5003;49382;-25.924;28.194;2022-08-21T02:55:35;12;12;
40947;PMS5003;49382;-25.924;28.194;2022-08-21T02:58:00;9;9;
40947;PMS5003;49382;-25.924;28.194;2022-08-21T03:00:25;10;10;
40947;PMS5003;49382;-25.924;28.194;2022-08-21T03:02:50;13;12;
40947;PMS5003;49382;-25.924;28.194;2022-08-21T03:05:16;12;11;
40947;PMS5003;49382;-25.924;28.194;2022-08-21T03:07:41;10;10;
40947;PMS5003;49382;-25.924;28.194;2022-08-21T03:10:06;9;9;
40947;PMS5003;49382;-25.924;28.194;2022-08-21T03:12:31;8;8;
40947;PMS5003;49382;-25.924;28.194;2022-08-21T03:14:56;8;8;
40947;PMS5003;49382;-25.924;28.194;2022-08-21T03:17:21;11;11;
40947;PMS5003;49382;-25.924;28.194;2022-08-21T03:19:47;14;14;
40947;PMS5003;49382;-25.924;28.194;2022-08-21T03:22:12;19;19;
40947;PMS5003;49382;-25.924;28.194;2022-08-21T03:24:38;22;22;
40947;PMS5003;49382;-25.924;28.194;2022-08-21T03:27:03;23;23;
40947;PMS5003;49382;-25.924;28.194;2022-08-21T03:29:28;30;30;
40947;PMS5003;49382;-25.924;28.194;2022-08-21T03:31:54;22;21;
40947;PMS5003;49382;-25.924;28.194;2022-08-21T03:34:19;23;23;
40947;PMS5003;49382;-25.924;28.194;2022-08-21T03:36:44;28;27;
40947;PMS5003;49382;-25.924;28.194;2022-08-21T03:39:09;20;20;
40947;PMS5003;49382;-25.924;28.194;2022-08-21T03:41:34;18;18;
40947;PMS5003;49382;-25.924;28.194;2022-08-21T03:44:00;20;20;
40947;PMS5003;49382;-25.924;28.194;2022-08-21T03:46:25;21;21;
40947;PMS5003;49382;-25.924;28.194;2022-08-21T03:48:50;27;27;
40947;PMS5003;49382;-25.924;28.194;2022-08-21T03:51:15;19;19;
40947;PMS5003;49382;-25.924;28.194;2022-08-21T03:53:41;6;6;
40947;PMS5003;49382;-25.924;28.194;2022-08-21T03:56:06;6;5;
40947;PMS5003;49382;-25.924;28.194;2022-08-21T03:58:31;6;6;
40947;PMS5003;49382;-25.924;28.194;2022-08-21T04:00:57;5;5;
40947;PMS5003;49382;-25.924;28.194;2022-08-21T04:03:22;8;7;
40947;PMS5003;49382;-25.924;28.194;2022-08-21T04:05:47;5;5;
40947;PMS5003;49382;-25.924;28.194;2022-08-21T04:08:12;6;6;
40947;PMS5003;49382;-25.924;28.194;2022-08-21T04:10:38;7;6;
40947;PMS5003;49382;-25.924;28.194;2022-08-21T04:13:03;6;6;
40947;PMS5003;49382;-25.924;28.194;2022-08-21T04:15:28;6;5;
40947;PMS5003;49382;-25.924;28.194;2022-08-21T04:17:54;5;5;
40947;PMS5003;49382;-25.924;28.194;2022-08-21T04:20:19;6;6;
40947;PMS5003;49382;-25.924;28.194;2022-08-21T04:22:44;6;6;
40947;PMS5003;49382;-25.924;28.194;2022-08-21T04:25:09;7;7;
40947;PMS5003;49382;-25.924;28.194;2022-08-21T04:27:34;6;6;
40947;PMS5003;49382;-25.924;28.194;2022-08-21T04:30:00;5;5;
40947;PMS5003;49382;-25.924;28.194;2022-08-21T04:32:25;5;5;
40947;PMS5003;49382;-25.924;28.194;2022-08-21T04:34:50;7;7;
40947;PMS5003;49382;-25.924;28.194;2022-08-21T04:37:15;7;7;
40947;PMS5003;49382;-25.924;28.194;2022-08-21T04:39:41;8;7;
40947;PMS5003;49382;-25.924;28.194;2022-08-21T04:42:06;7;6;
40947;PMS5003;49382;-25.924;28.194;2022-08-21T04:44:31;6;6;
40947;PMS5003;49382;-25.924;28.194;2022-08-21T04:46:56;8;8;
40947;PMS5003;49382;-25.924;28.194;2022-08-21T04:49:22;9;8;
40947;PMS5003;49382;-25.924;28.194;2022-08-21T04:51:47;9;8;
40947;PMS5003;49382;-25.924;28.194;2022-08-21T04:54:13;8;8;
40947;PMS5003;49382;-25.924;28.194;2022-08-21T04:56:39;9;9;
40947;PMS5003;49382;-25.924;28.194;2022-08-21T04:59:04;12;11;
40947;PMS5003;49382;-25.924;28.194;2022-08-21T05:01:29;10;10;
40947;PMS5003;49382;-25.924;28.194;2022-08-21T05:03:54;11;11;
40947;PMS5003;49382;-25.924;28.194;2022-08-21T05:06:19;11;11;
40947;PMS5003;49382;-25.924;28.194;2022-08-21T05:08:44;11;11;
40947;PMS5003;49382;-25.924;28.194;2022-08-21T05:11:09;12;12;
40947;PMS5003;49382;-25.924;28.194;2022-08-21T05:13:34;11;11;
40947;PMS5003;49382;-25.924;28.194;2022-08-21T05:15:59;11;11;
40947;PMS5003;49382;-25.924;28.194;2022-08-21T05:18:25;15;15;
40947;PMS5003;49382;-25.924;28.194;2022-08-21T05:20:50;15;14;
40947;PMS5003;49382;-25.924;28.194;2022-08-21T05:23:16;15;15;
40947;PMS5003;49382;-25.924;28.194;2022-08-21T05:25:41;18;16;
40947;PMS5003;49382;-25.924;28.194;2022-08-21T05:28:06;16;16;
40947;PMS5003;49382;-25.924;28.194;2022-08-21T05:30:31;18;17;
40947;PMS5003;49382;-25.924;28.194;2022-08-21T05:32:57;30;30;
40947;PMS5003;49382;-25.924;28.194;2022-08-21T05:35:23;22;21;
40947;PMS5003;49382;-25.924;28.194;2022-08-21T05:37:47;24;22;
40947;PMS5003;49382;-25.924;28.194;2022-08-21T05:40:12;19;18;
40947;PMS5003;49382;-25.924;28.194;2022-08-21T05:42:37;17;17;
40947;PMS5003;49382;-25.924;28.194;2022-08-21T05:45:03;18;17;
40947;PMS5003;49382;-25.924;28.194;2022-08-21T05:47:29;18;18;
40947;PMS5003;49382;-25.924;28.194;2022-08-21T05:49:54;20;19;
40947;PMS5003;49382;-25.924;28.194;2022-08-21T05:52:20;16;16;
40947;PMS5003;49382;-25.924;28.194;2022-08-21T05:54:45;19;18;
40947;PMS5003;49382;-25.924;28.194;2022-08-21T05:57:10;20;19;
40947;PMS5003;49382;-25.924;28.194;2022-08-21T05:59:36;17;16;
40947;PMS5003;49382;-25.924;28.194;2022-08-21T06:02:01;20;20;
40947;PMS5003;49382;-25.924;28.194;2022-08-21T06:04:26;21;19;
40947;PMS5003;49382;-25.924;28.194;2022-08-21T06:06:51;20;19;
40947;PMS5003;49382;-25.924;28.194;2022-08-21T06:09:17;18;18;
40947;PMS5003;49382;-25.924;28.194;2022-08-21T06:11:43;19;19;
40947;PMS5003;49382;-25.924;28.194;2022-08-21T06:14:08;22;22;
40947;PMS5003;49382;-25.924;28.194;2022-08-21T06:16:33;58;58;
40947;PMS5003;49382;-25.924;28.194;2022-08-21T06:18:59;36;35;
40947;PMS5003;49382;-25.924;28.194;2022-08-21T06:21:24;61;60;
40947;PMS5003;49382;-25.924;28.194;2022-08-21T06:23:49;36;34;
40947;PMS5003;49382;-25.924;28.194;2022-08-21T06:26:14;38;37;
40947;PMS5003;49382;-25.924;28.194;2022-08-21T06:28:41;39;39;
40947;PMS5003;49382;-25.924;28.194;2022-08-21T06:31:10;23;21;
40947;PMS5003;49382;-25.924;28.194;2022-08-21T06:33:31;19;18;
40947;PMS5003;49382;-25.924;28.194;2022-08-21T06:35:57;20;19;
40947;PMS5003;49382;-25.924;28.194;2022-08-21T06:38:22;18;18;
40947;PMS5003;49382;-25.924;28.194;2022-08-21T06:40:47;20;19;
40947;PMS5003;49382;-25.924;28.194;2022-08-21T06:43:14;17;17;
40947;PMS5003;49382;-25.924;28.194;2022-08-21T06:45:38;16;15;
40947;PMS5003;49382;-25.924;28.194;2022-08-21T06:48:03;18;17;
40947;PMS5003;49382;-25.924;28.194;2022-08-21T06:50:28;17;16;
40947;PMS5003;49382;-25.924;28.194;2022-08-21T06:52:58;16;16;
40947;PMS5003;49382;-25.924;28.194;2022-08-21T06:55:19;16;15;
40947;PMS5003;49382;-25.924;28.194;2022-08-21T06:57:44;18;16;
40947;PMS5003;49382;-25.924;28.194;2022-08-21T07:00:10;16;16;
40947;PMS5003;49382;-25.924;28.194;2022-08-21T07:02:34;17;15;
40947;PMS5003;49382;-25.924;28.194;2022-08-21T07:05:00;18;17;
40947;PMS5003;49382;-25.924;28.194;2022-08-21T07:07:25;19;18;
40947;PMS5003;49382;-25.924;28.194;2022-08-21T07:09:50;16;16;
40947;PMS5003;49382;-25.924;28.194;2022-08-21T07:12:15;17;17;
40947;PMS5003;49382;-25.924;28.194;2022-08-21T07:14:40;16;15;
40947;PMS5003;49382;-25.924;28.194;2022-08-21T07:17:06;14;13;
40947;PMS5003;49382;-25.924;28.194;2022-08-21T07:19:31;17;17;
40947;PMS5003;49382;-25.924;28.194;2022-08-21T07:21:57;14;13;
40947;PMS5003;49382;-25.924;28.194;2022-08-21T07:24:22;14;13;
40947;PMS5003;49382;-25.924;28.194;2022-08-21T07:26:47;19;19;
40947;PMS5003;49382;-25.924;28.194;2022-08-21T07:29:12;14;14;
40947;PMS5003;49382;-25.924;28.194;2022-08-21T07:31:37;13;13;
40947;PMS5003;49382;-25.924;28.194;2022-08-21T07:34:02;19;18;
40947;PMS5003;49382;-25.924;28.194;2022-08-21T07:36:27;18;17;
40947;PMS5003;49382;-25.924;28.194;2022-08-21T07:38:52;18;18;
40947;PMS5003;49382;-25.924;28.194;2022-08-21T07:41:19;18;18;
40947;PMS5003;49382;-25.924;28.194;2022-08-21T07:43:43;16;16;
40947;PMS5003;49382;-25.924;28.194;2022-08-21T07:46:08;17;17;
40947;PMS5003;49382;-25.924;28.194;2022-08-21T07:48:33;16;16;
40947;PMS5003;49382;-25.924;28.194;2022-08-21T07:50:58;16;16;
40947;PMS5003;49382;-25.924;28.194;2022-08-21T07:53:23;18;18;
40947;PMS5003;49382;-25.924;28.194;2022-08-21T07:55:49;18;17;
40947;PMS5003;49382;-25.924;28.194;2022-08-21T07:58:14;17;17;
40947;PMS5003;49382;-25.924;28.194;2022-08-21T08:00:39;20;19;
40947;PMS5003;49382;-25.924;28.194;2022-08-21T08:03:04;19;19;
40947;PMS5003;49382;-25.924;28.194;2022-08-21T08:05:30;18;18;
40947;PMS5003;49382;-25.924;28.194;2022-08-21T08:07:55;20;19;
40947;PMS5003;49382;-25.924;28.194;2022-08-21T08:10:20;19;19;
40947;PMS5003;49382;-25.924;28.194;2022-08-21T08:12:45;18;18;
40947;PMS5003;49382;-25.924;28.194;2022-08-21T08:15:11;18;18;
40947;PMS5003;49382;-25.924;28.194;2022-08-21T08:17:35;20;19;
40947;PMS5003;49382;-25.924;28.194;2022-08-21T08:20:00;20;19;
40947;PMS5003;49382;-25.924;28.194;2022-08-21T08:22:26;20;20;
40947;PMS5003;49382;-25.924;28.194;2022-08-21T08:24:51;22;22;
40947;PMS5003;49382;-25.924;28.194;2022-08-21T08:27:17;17;16;
40947;PMS5003;49382;-25.924;28.194;2022-08-21T08:29:42;24;22;
40947;PMS5003;49382;-25.924;28.194;2022-08-21T08:32:07;16;16;
40947;PMS5003;49382;-25.924;28.194;2022-08-21T08:34:33;16;16;
40947;PMS5003;49382;-25.924;28.194;2022-08-21T08:36:59;16;16;
40947;PMS5003;49382;-25.924;28.194;2022-08-21T08:39:24;15;14;
40947;PMS5003;49382;-25.924;28.194;2022-08-21T08:41:50;15;15;
40947;PMS5003;49382;-25.924;28.194;2022-08-21T08:44:16;14;14;
40947;PMS5003;49382;-25.924;28.194;2022-08-21T08:46:43;14;14;
40947;PMS5003;49382;-25.924;28.194;2022-08-21T08:49:09;13;12;
40947;PMS5003;49382;-25.924;28.194;2022-08-21T08:51:34;14;13;
40947;PMS5003;49382;-25.924;28.194;2022-08-21T08:53:59;15;14;
40947;PMS5003;49382;-25.924;28.194;2022-08-21T08:56:27;15;15;
40947;PMS5003;49382;-25.924;28.194;2022-08-21T08:58:50;14;14;
40947;PMS5003;49382;-25.924;28.194;2022-08-21T09:01:17;25;25;
40947;PMS5003;49382;-25.924;28.194;2022-08-21T09:03:41;12;12;
40947;PMS5003;49382;-25.924;28.194;2022-08-21T09:06:08;30;29;
40947;PMS5003;49382;-25.924;28.194;2022-08-21T09:08:39;14;14;
40947;PMS5003;49382;-25.924;28.194;2022-08-21T09:11:01;22;22;
40947;PMS5003;49382;-25.924;28.194;2022-08-21T09:13:26;34;33;
40947;PMS5003;49382;-25.924;28.194;2022-08-21T09:16:05;15;15;
40947;PMS5003;49382;-25.924;28.194;2022-08-21T09:18:19;16;16;
40947;PMS5003;49382;-25.924;28.194;2022-08-21T09:20:40;18;18;
40947;PMS5003;49382;-25.924;28.194;2022-08-21T09:23:07;19;18;
40947;PMS5003;49382;-25.924;28.194;2022-08-21T09:25:32;18;18;
40947;PMS5003;49382;-25.924;28.194;2022-08-21T09:27:55;20;18;
40947;PMS5003;49382;-25.924;28.194;2022-08-21T09:30:24;19;18;
40947;PMS5003;49382;-25.924;28.194;2022-08-21T09:32:46;19;18;
40947;PMS5003;49382;-25.924;28.194;2022-08-21T09:35:12;22;21;
40947;PMS5003;49382;-25.924;28.194;2022-08-21T09:40:02;20;20;
40947;PMS5003;49382;-25.924;28.194;2022-08-21T09:42:27;22;21;
40947;PMS5003;49382;-25.924;28.194;2022-08-21T09:47:18;31;31;
40947;PMS5003;49382;-25.924;28.194;2022-08-21T09:49:42;29;28;
40947;PMS5003;49382;-25.924;28.194;2022-08-21T09:52:13;32;31;
40947;PMS5003;49382;-25.924;28.194;2022-08-21T09:54:34;53;52;
40947;PMS5003;49382;-25.924;28.194;2022-08-21T09:56:59;54;53;
40947;PMS5003;49382;-25.924;28.194;2022-08-21T09:59:25;33;31;
40947;PMS5003;49382;-25.924;28.194;2022-08-21T10:01:50;36;35;
40947;PMS5003;49382;-25.924;28.194;2022-08-21T10:04:14;68;68;
40947;PMS5003;49382;-25.924;28.194;2022-08-21T10:06:39;23;23;
40947;PMS5003;49382;-25.924;28.194;2022-08-21T10:09:05;28;28;
40947;PMS5003;49382;-25.924;28.194;2022-08-21T10:11:29;25;25;
40947;PMS5003;49382;-25.924;28.194;2022-08-21T10:13:56;26;24;
40947;PMS5003;49382;-25.924;28.194;2022-08-21T10:16:24;23;23;
40947;PMS5003;49382;-25.924;28.194;2022-08-21T10:18:46;27;26;
40947;PMS5003;49382;-25.924;28.194;2022-08-21T10:21:13;28;26;
40947;PMS5003;49382;-25.924;28.194;2022-08-21T10:23:40;26;26;
40947;PMS5003;49382;-25.924;28.194;2022-08-21T10:26:02;25;25;
40947;PMS5003;49382;-25.924;28.194;2022-08-21T10:28:27;26;26;
40947;PMS5003;49382;-25.924;28.194;2022-08-21T10:30:52;25;24;
40947;PMS5003;49382;-25.924;28.194;2022-08-21T10:33:20;26;24;
40947;PMS5003;49382;-25.924;28.194;2022-08-21T10:35:43;26;25;
40947;PMS5003;49382;-25.924;28.194;2022-08-21T10:40:34;30;26;
40947;PMS5003;49382;-25.924;28.194;2022-08-21T10:43:01;25;24;
40947;PMS5003;49382;-25.924;28.194;2022-08-21T10:45:29;26;26;
40947;PMS5003;49382;-25.924;28.194;2022-08-21T10:47:48;25;25;
40947;PMS5003;49382;-25.924;28.194;2022-08-21T10:50:16;22;22;
40947;PMS5003;49382;-25.924;28.194;2022-08-21T10:52:45;24;24;
40947;PMS5003;49382;-25.924;28.194;2022-08-21T10:55:06;27;24;
40947;PMS5003;49382;-25.924;28.194;2022-08-21T10:57:31;26;23;
40947;PMS5003;49382;-25.924;28.194;2022-08-21T10:59:55;25;24;
40947;PMS5003;49382;-25.924;28.194;2022-08-21T11:02:20;27;27;
40947;PMS5003;49382;-25.924;28.194;2022-08-21T11:04:48;28;27;
40947;PMS5003;49382;-25.924;28.194;2022-08-21T11:07:11;26;26;
40947;PMS5003;49382;-25.924;28.194;2022-08-21T11:09:36;24;24;
40947;PMS5003;49382;-25.924;28.194;2022-08-21T11:12:03;22;21;
40947;PMS5003;49382;-25.924;28.194;2022-08-21T11:14:29;23;23;
40947;PMS5003;49382;-25.924;28.194;2022-08-21T11:16:53;22;22;
40947;PMS5003;49382;-25.924;28.194;2022-08-21T11:19:17;23;23;
40947;PMS5003;49382;-25.924;28.194;2022-08-21T11:21:45;24;23;
40947;PMS5003;49382;-25.924;28.194;2022-08-21T11:26:34;21;20;
40947;PMS5003;49382;-25.924;28.194;2022-08-21T11:29:00;21;21;
40947;PMS5003;49382;-25.924;28.194;2022-08-21T11:31:27;24;22;
40947;PMS5003;49382;-25.924;28.194;2022-08-21T11:33:52;19;19;
40947;PMS5003;49382;-25.924;28.194;2022-08-21T11:36:16;19;19;
40947;PMS5003;49382;-25.924;28.194;2022-08-21T11:38:39;22;21;
40947;PMS5003;49382;-25.924;28.194;2022-08-21T11:41:08;22;21;
40947;PMS5003;49382;-25.924;28.194;2022-08-21T11:43:32;17;17;
40947;PMS5003;49382;-25.924;28.194;2022-08-21T11:45:55;17;17;
40947;PMS5003;49382;-25.924;28.194;2022-08-21T11:48:25;20;19;
40947;PMS5003;49382;-25.924;28.194;2022-08-21T11:50:45;17;16;
40947;PMS5003;49382;-25.924;28.194;2022-08-21T11:53:11;20;19;
40947;PMS5003;49382;-25.924;28.194;2022-08-21T11:55:38;17;17;
40947;PMS5003;49382;-25.924;28.194;2022-08-21T11:58:04;17;15;
40947;PMS5003;49382;-25.924;28.194;2022-08-21T12:00:27;13;13;
40947;PMS5003;49382;-25.924;28.194;2022-08-21T12:02:52;13;13;
40947;PMS5003;49382;-25.924;28.194;2022-08-21T12:07:42;14;14;
40947;PMS5003;49382;-25.924;28.194;2022-08-21T12:10:09;15;15;
40947;PMS5003;49382;-25.924;28.194;2022-08-21T12:12:34;14;14;
40947;PMS5003;49382;-25.924;28.194;2022-08-21T12:17:26;15;14;
40947;PMS5003;49382;-25.924;28.194;2022-08-21T12:22:13;12;12;
40947;PMS5003;49382;-25.924;28.194;2022-08-21T12:24:40;13;13;
40947;PMS5003;49382;-25.924;28.194;2022-08-21T12:29:30;11;11;
40947;PMS5003;49382;-25.924;28.194;2022-08-21T12:31:56;11;10;
40947;PMS5003;49382;-25.924;28.194;2022-08-21T12:34:19;14;13;
40947;PMS5003;49382;-25.924;28.194;2022-08-21T12:36:45;14;12;
40947;PMS5003;49382;-25.924;28.194;2022-08-21T12:39:12;10;10;
40947;PMS5003;49382;-25.924;28.194;2022-08-21T12:41:38;12;12;
40947;PMS5003;49382;-25.924;28.194;2022-08-21T12:44:01;11;11;
40947;PMS5003;49382;-25.924;28.194;2022-08-21T12:46:27;10;10;
40947;PMS5003;49382;-25.924;28.194;2022-08-21T12:48:52;11;10;
40947;PMS5003;49382;-25.924;28.194;2022-08-21T12:51:16;9;9;
40947;PMS5003;49382;-25.924;28.194;2022-08-21T12:53:41;11;10;
40947;PMS5003;49382;-25.924;28.194;2022-08-21T12:56:08;14;13;
40947;PMS5003;49382;-25.924;28.194;2022-08-21T12:58:30;14;14;
40947;PMS5003;49382;-25.924;28.194;2022-08-21T13:00:56;34;34;
40947;PMS5003;49382;-25.924;28.194;2022-08-21T13:03:21;11;10;
40947;PMS5003;49382;-25.924;28.194;2022-08-21T13:05:46;8;8;
40947;PMS5003;49382;-25.924;28.194;2022-08-21T13:08:11;9;9;
40947;PMS5003;49382;-25.924;28.194;2022-08-21T13:10:36;10;9;
40947;PMS5003;49382;-25.924;28.194;2022-08-21T13:13:03;11;11;
40947;PMS5003;49382;-25.924;28.194;2022-08-21T13:15:29;9;8;
40947;PMS5003;49382;-25.924;28.194;2022-08-21T13:17:51;13;11;
40947;PMS5003;49382;-25.924;28.194;2022-08-21T13:20:19;14;14;
40947;PMS5003;49382;-25.924;28.194;2022-08-21T13:22:42;15;15;
40947;PMS5003;49382;-25.924;28.194;2022-08-21T13:25:09;15;15;
40947;PMS5003;49382;-25.924;28.194;2022-08-21T13:27:32;18;17;
40947;PMS5003;49382;-25.924;28.194;2022-08-21T13:32:23;19;18;
40947;PMS5003;49382;-25.924;28.194;2022-08-21T13:34:47;16;16;
40947;PMS5003;49382;-25.924;28.194;2022-08-21T13:37:14;17;17;
40947;PMS5003;49382;-25.924;28.194;2022-08-21T13:39:37;11;11;
40947;PMS5003;49382;-25.924;28.194;2022-08-21T13:42:03;12;12;
40947;PMS5003;49382;-25.924;28.194;2022-08-21T13:44:32;13;12;
40947;PMS5003;49382;-25.924;28.194;2022-08-21T13:46:52;9;9;
40947;PMS5003;49382;-25.924;28.194;2022-08-21T13:49:20;11;10;
40947;PMS5003;49382;-25.924;28.194;2022-08-21T13:51:42;10;10;
40947;PMS5003;49382;-25.924;28.194;2022-08-21T13:56:41;6;6;
40947;PMS5003;49382;-25.924;28.194;2022-08-21T13:58:58;6;5;
40947;PMS5003;49382;-25.924;28.194;2022-08-21T14:01:25;6;6;
40947;PMS5003;49382;-25.924;28.194;2022-08-21T14:03:49;7;7;
40947;PMS5003;49382;-25.924;28.194;2022-08-21T14:06:13;6;6;
40947;PMS5003;49382;-25.924;28.194;2022-08-21T14:08:39;8;6;
40947;PMS5003;49382;-25.924;28.194;2022-08-21T14:11:04;7;7;
40947;PMS5003;49382;-25.924;28.194;2022-08-21T14:13:30;3;3;
40947;PMS5003;49382;-25.924;28.194;2022-08-21T14:15:54;7;7;
40947;PMS5003;49382;-25.924;28.194;2022-08-21T14:18:18;4;4;
40947;PMS5003;49382;-25.924;28.194;2022-08-21T14:20:43;6;5;
40947;PMS5003;49382;-25.924;28.194;2022-08-21T14:23:08;5;5;
40947;PMS5003;49382;-25.924;28.194;2022-08-21T14:25:37;7;7;
40947;PMS5003;49382;-25.924;28.194;2022-08-21T14:28:02;7;6;
40947;PMS5003;49382;-25.924;28.194;2022-08-21T14:30:27;7;7;
40947;PMS5003;49382;-25.924;28.194;2022-08-21T14:32:48;5;5;
40947;PMS5003;49382;-25.924;28.194;2022-08-21T14:35:14;5;4;
40947;PMS5003;49382;-25.924;28.194;2022-08-21T14:37:41;5;5;
40947;PMS5003;49382;-25.924;28.194;2022-08-21T14:40:04;10;10;
40947;PMS5003;49382;-25.924;28.194;2022-08-21T14:42:29;6;6;
40947;PMS5003;49382;-25.924;28.194;2022-08-21T14:44:54;8;8;
40947;PMS5003;49382;-25.924;28.194;2022-08-21T14:47:20;7;7;
40947;PMS5003;49382;-25.924;28.194;2022-08-21T14:49:45;5;5;
40947;PMS5003;49382;-25.924;28.194;2022-08-21T14:52:11;8;8;
40947;PMS5003;49382;-25.924;28.194;2022-08-21T14:54:35;9;8;
40947;PMS5003;49382;-25.924;28.194;2022-08-21T14:57:01;8;7;
40947;PMS5003;49382;-25.924;28.194;2022-08-21T14:59:25;7;7;
40947;PMS5003;49382;-25.924;28.194;2022-08-21T15:01:51;9;9;
40947;PMS5003;49382;-25.924;28.194;2022-08-21T15:04:15;11;11;
40947;PMS5003;49382;-25.924;28.194;2022-08-21T15:06:40;9;8;
40947;PMS5003;49382;-25.924;28.194;2022-08-21T15:09:05;8;8;
40947;PMS5003;49382;-25.924;28.194;2022-08-21T15:11:31;10;10;
40947;PMS5003;49382;-25.924;28.194;2022-08-21T15:13:56;10;9;
40947;PMS5003;49382;-25.924;28.194;2022-08-21T15:16:20;10;10;
40947;PMS5003;49382;-25.924;28.194;2022-08-21T15:18:46;10;10;
40947;PMS5003;49382;-25.924;28.194;2022-08-21T15:21:11;12;12;
40947;PMS5003;49382;-25.924;28.194;2022-08-21T15:23:36;12;11;
40947;PMS5003;49382;-25.924;28.194;2022-08-21T15:26:01;13;12;
40947;PMS5003;49382;-25.924;28.194;2022-08-21T15:28:26;14;14;
40947;PMS5003;49382;-25.924;28.194;2022-08-21T15:30:51;16;16;
40947;PMS5003;49382;-25.924;28.194;2022-08-21T15:33:16;14;14;
40947;PMS5003;49382;-25.924;28.194;2022-08-21T15:35:41;16;16;
40947;PMS5003;49382;-25.924;28.194;2022-08-21T15:38:07;23;22;
40947;PMS5003;49382;-25.924;28.194;2022-08-21T15:40:33;24;24;
40947;PMS5003;49382;-25.924;28.194;2022-08-21T15:43:00;26;25;
40947;PMS5003;49382;-25.924;28.194;2022-08-21T15:45:24;27;25;
40947;PMS5003;49382;-25.924;28.194;2022-08-21T15:47:49;28;28;
40947;PMS5003;49382;-25.924;28.194;2022-08-21T15:50:15;28;27;
40947;PMS5003;49382;-25.924;28.194;2022-08-21T15:52:40;24;24;
40947;PMS5003;49382;-25.924;28.194;2022-08-21T15:55:05;25;25;
40947;PMS5003;49382;-25.924;28.194;2022-08-21T15:57:30;26;25;
40947;PMS5003;49382;-25.924;28.194;2022-08-21T15:59:57;29;28;
40947;PMS5003;49382;-25.924;28.194;2022-08-21T16:02:22;28;27;
40947;PMS5003;49382;-25.924;28.194;2022-08-21T16:04:46;28;28;
40947;PMS5003;49382;-25.924;28.194;2022-08-21T16:07:12;30;30;